createdAt,value
2017-03-01T13:01:13.159Z,930.18
2017-03-01T13:02:40.439Z,930.2
2017-03-01T13:03:52.607Z,930.2
2017-03-01T13:05:05.354Z,930.13
2017-03-01T13:06:18.652Z,930.12
2017-03-01T13:07:45.914Z,930.11
2017-03-01T13:08:59.224Z,930.19
2017-03-01T13:10:12.514Z,930.19
2017-03-01T13:11:25.818Z,930.19
2017-03-01T13:12:39.144Z,930.23
2017-03-01T13:13:52.484Z,930.22
2017-03-01T13:15:19.844Z,930.2
2017-03-01T13:16:31.444Z,930.2
2017-03-01T13:17:59.574Z,930.08
2017-03-01T13:19:12.375Z,930.11
2017-03-01T13:20:25.890Z,930.22
2017-03-01T13:21:39.264Z,930.15
2017-03-01T13:23:06.580Z,930.21
2017-03-01T13:24:19.951Z,930.18
2017-03-01T13:27:00.512Z,930.1
2017-03-01T13:28:27.865Z,930.15
2017-03-01T13:29:40.598Z,930.07
2017-03-01T13:30:53.884Z,930.15
2017-03-01T13:32:06.605Z,930.22
2017-03-01T13:33:19.913Z,930.22
2017-03-01T13:34:32.074Z,930.23
2017-03-01T13:35:58.810Z,930.25
2017-03-01T13:37:12.352Z,930.2
2017-03-01T13:38:25.657Z,930.27
2017-03-01T13:39:52.938Z,930.26
2017-03-01T13:41:05.089Z,930.2
2017-03-01T13:42:18.582Z,930.22
2017-03-01T13:43:31.886Z,930.28
2017-03-01T13:44:44.603Z,930.26
2017-03-01T13:45:57.906Z,930.33
2017-03-01T13:47:25.160Z,930.26
2017-03-01T13:48:38.444Z,930.27
2017-03-01T13:49:51.729Z,930.28
2017-03-01T13:51:03.882Z,930.24
2017-03-01T13:52:16.068Z,930.24
2017-03-01T13:53:28.411Z,930.28
2017-03-01T13:54:55.674Z,930.31
2017-03-01T13:56:22.371Z,930.27
2017-03-01T13:57:35.085Z,930.26
2017-03-01T13:58:48.376Z,930.27
2017-03-01T14:00:01.128Z,930.24
2017-03-01T14:01:14.832Z,930.28
2017-03-01T14:02:42.150Z,930.24
2017-03-01T14:05:26.017Z,930.18
2017-03-01T14:06:39.303Z,930.14
2017-03-01T14:07:50.891Z,930.08
2017-03-01T14:09:04.177Z,930.12
2017-03-01T14:10:17.497Z,930.05
2017-03-01T14:11:44.395Z,930.05
2017-03-01T14:12:57.872Z,930.07
2017-03-01T14:14:10.621Z,930.02
2017-03-01T14:15:23.947Z,930.06
2017-03-01T14:16:51.209Z,930.06
2017-03-01T14:18:04.499Z,930.15
2017-03-01T14:19:17.794Z,930.17
2017-03-01T14:20:31.081Z,930.2
2017-03-01T14:23:11.829Z,930.17
2017-03-01T14:24:25.135Z,930.22
2017-03-01T14:25:38.442Z,930.15
2017-03-01T14:26:51.739Z,930.19
2017-03-01T14:28:19.099Z,930.21
2017-03-01T14:29:46.413Z,930.26
2017-03-01T14:31:13.701Z,930.22
2017-03-01T14:32:40.975Z,930.25
2017-03-01T14:33:54.280Z,930.2
2017-03-01T14:35:07.605Z,930.24
2017-03-01T14:36:20.343Z,930.24
2017-03-01T14:37:33.084Z,930.24
2017-03-01T14:38:46.382Z,930.28
2017-03-01T14:39:59.866Z,930.25
2017-03-01T14:41:12.017Z,930.21
2017-03-01T14:42:39.286Z,930.27
2017-03-01T14:43:52.560Z,930.27
2017-03-01T14:45:06.073Z,930.3
2017-03-01T14:46:19.393Z,930.28
2017-03-01T14:47:32.666Z,930.25
2017-03-01T14:48:45.973Z,930.14
2017-03-01T14:49:59.249Z,930.18
2017-03-01T14:51:12.566Z,930.3
2017-03-01T14:52:25.914Z,930.24
2017-03-01T14:53:39.203Z,930.24
2017-03-01T14:54:52.498Z,930.22
2017-03-01T14:56:05.779Z,930.24
2017-03-01T14:57:19.088Z,930.22
2017-03-01T14:58:32.364Z,930.33
2017-03-01T14:59:45.664Z,930.35
2017-03-01T15:00:59.159Z,930.2
2017-03-01T15:02:12.469Z,930.32
2017-03-01T15:03:25.748Z,930.32
2017-03-01T15:04:39.045Z,930.31
2017-03-01T15:05:52.337Z,930.26
2017-03-01T15:07:05.833Z,930.27
2017-03-01T15:08:19.128Z,930.26
2017-03-01T15:09:32.404Z,930.2
2017-03-01T15:10:45.687Z,930.18
2017-03-01T15:13:25.683Z,930.18
2017-03-01T15:14:38.972Z,930.19
2017-03-01T15:15:52.265Z,930.17
2017-03-01T15:17:05.192Z,930.09
2017-03-01T15:18:17.919Z,930.15
2017-03-01T15:19:31.229Z,930.16
2017-03-01T15:20:44.522Z,930.15
2017-03-01T15:21:56.664Z,930.06
2017-03-01T15:23:09.376Z,930.15
2017-03-01T15:24:22.655Z,930.14
2017-03-01T15:27:03.229Z,930.09
2017-03-01T15:28:15.383Z,930.14
2017-03-01T15:29:28.106Z,930.12
2017-03-01T15:30:40.846Z,930.09
2017-03-01T15:31:53.561Z,930.13
2017-03-01T15:33:06.849Z,929.99
2017-03-01T15:34:20.138Z,929.96
2017-03-01T15:35:32.853Z,929.98
2017-03-01T15:36:45.561Z,929.93
2017-03-01T15:37:58.329Z,929.93
2017-03-01T15:39:11.891Z,929.9
2017-03-01T15:40:25.182Z,929.91
2017-03-01T15:41:38.459Z,929.9
2017-03-01T15:42:50.609Z,929.93
2017-03-01T15:44:03.329Z,929.92
2017-03-01T15:45:16.633Z,929.88
2017-03-01T15:46:29.359Z,929.91
2017-03-01T15:47:42.633Z,929.84
2017-03-01T15:48:55.960Z,929.69
2017-03-01T15:50:09.263Z,929.88
2017-03-01T15:51:22.017Z,929.78
2017-03-01T15:52:49.290Z,929.73
2017-03-01T15:54:02.578Z,929.77
2017-03-01T15:55:16.103Z,929.73
2017-03-01T15:56:28.832Z,929.68
2017-03-01T15:57:40.434Z,929.66
2017-03-01T15:58:53.158Z,929.65
2017-03-01T16:00:20.167Z,929.66
2017-03-01T16:01:47.433Z,929.65
2017-03-01T16:03:00.148Z,929.69
2017-03-01T16:04:13.465Z,929.63
2017-03-01T16:05:25.608Z,929.63
2017-03-01T16:06:38.931Z,929.64
2017-03-01T16:07:52.223Z,929.57
2017-03-01T16:09:05.505Z,929.63
2017-03-01T16:10:32.984Z,929.62
2017-03-01T16:11:46.355Z,929.64
2017-03-01T16:12:59.639Z,929.61
2017-03-01T16:14:12.943Z,929.51
2017-03-01T16:15:40.212Z,929.57
2017-03-01T16:16:53.516Z,929.51
2017-03-01T16:18:05.679Z,929.5
2017-03-01T16:19:17.832Z,929.53
2017-03-01T16:20:31.110Z,929.51
2017-03-01T16:21:44.733Z,929.47
2017-03-01T16:22:58.049Z,929.46
2017-03-01T16:24:11.334Z,929.49
2017-03-01T16:25:24.038Z,929.45
2017-03-01T16:26:37.525Z,929.47
2017-03-01T16:27:50.251Z,929.44
2017-03-01T16:29:03.553Z,929.48
2017-03-01T16:30:16.846Z,929.39
2017-03-01T16:31:29.576Z,929.36
2017-03-01T16:32:43.090Z,929.33
2017-03-01T16:33:56.371Z,929.32
2017-03-01T16:35:09.669Z,929.29
2017-03-01T16:36:23.023Z,929.24
2017-03-01T16:37:35.771Z,929.27
2017-03-01T16:38:48.486Z,929.2
2017-03-01T16:40:15.743Z,929.33
2017-03-01T16:41:43.008Z,929.25
2017-03-01T16:42:56.601Z,929.24
2017-03-01T16:44:09.903Z,929.22
2017-03-01T16:45:23.192Z,929.14
2017-03-01T16:46:35.366Z,929.15
2017-03-01T16:49:16.189Z,929.15
2017-03-01T16:50:28.906Z,929.11
2017-03-01T16:51:42.198Z,929.09
2017-03-01T16:52:54.982Z,928.99
2017-03-01T16:54:08.515Z,928.94
2017-03-01T16:57:01.983Z,928.96
2017-03-01T16:58:15.586Z,929
2017-03-01T16:59:42.846Z,928.91
2017-03-01T17:01:10.141Z,928.9
2017-03-01T17:02:23.492Z,928.88
2017-03-01T17:03:36.794Z,928.87
2017-03-01T17:04:49.572Z,928.79
2017-03-01T17:06:02.954Z,928.77
2017-03-01T17:07:16.899Z,928.68
2017-03-01T17:08:30.477Z,928.71
2017-03-01T17:09:43.265Z,928.72
2017-03-01T17:11:10.602Z,928.72
2017-03-01T17:12:37.902Z,928.67
2017-03-01T17:13:50.658Z,928.63
2017-03-01T17:15:04.007Z,928.53
2017-03-01T17:16:17.334Z,928.57
2017-03-01T17:17:29.525Z,928.47
2017-03-01T17:18:42.850Z,928.5
2017-03-01T17:19:56.171Z,928.49
2017-03-01T17:21:09.533Z,928.45
2017-03-01T17:22:22.866Z,928.38
2017-03-01T17:23:36.189Z,928.35
2017-03-01T17:24:48.918Z,928.35
2017-03-01T17:26:02.266Z,928.33
2017-03-01T17:27:15.616Z,928.29
2017-03-01T17:28:28.981Z,928.27
2017-03-01T17:29:56.350Z,928.2
2017-03-01T17:31:09.732Z,928.15
2017-03-01T17:32:23.053Z,928.17
2017-03-01T17:33:35.791Z,928.2
2017-03-01T17:34:49.138Z,928.23
2017-03-01T17:36:03.303Z,928.19
2017-03-01T17:37:16.658Z,928.22
2017-03-01T17:38:28.912Z,928.19
2017-03-01T17:39:42.238Z,928.23
2017-03-01T17:40:55.888Z,928.21
2017-03-01T17:42:09.189Z,928.19
2017-03-01T17:43:21.408Z,928.21
2017-03-01T17:44:34.986Z,928.18
2017-03-01T17:46:01.729Z,928.19
2017-03-01T17:47:15.055Z,928.23
2017-03-01T17:48:28.426Z,928.2
2017-03-01T17:49:42.003Z,928.18
2017-03-01T17:50:55.329Z,928.15
2017-03-01T17:52:08.671Z,928.17
2017-03-01T17:53:22.049Z,928.18
2017-03-01T17:54:34.858Z,928.15
2017-03-01T17:55:48.202Z,928.18
2017-03-01T17:57:00.938Z,928.15
2017-03-01T17:58:14.258Z,928.15
2017-03-01T17:59:27.047Z,928.11
2017-03-01T18:00:39.822Z,928.15
2017-03-01T18:01:53.153Z,928.11
2017-03-01T18:03:06.737Z,928.07
2017-03-01T18:05:47.393Z,927.99
2017-03-01T18:07:00.700Z,927.95
2017-03-01T18:08:27.441Z,927.97
2017-03-01T18:09:40.429Z,927.94
2017-03-01T18:10:53.770Z,927.95
2017-03-01T18:12:07.125Z,927.87
2017-03-01T18:13:19.861Z,927.91
2017-03-01T18:14:33.213Z,928
2017-03-01T18:15:46.553Z,927.98
2017-03-01T18:16:59.912Z,927.97
2017-03-01T18:18:13.472Z,927.95
2017-03-01T18:19:26.793Z,927.91
2017-03-01T18:20:39.545Z,927.83
2017-03-01T18:21:52.321Z,927.82
2017-03-01T18:23:05.673Z,927.75
2017-03-01T18:24:19.023Z,927.69
2017-03-01T18:25:32.384Z,927.72
2017-03-01T18:26:45.728Z,927.7
2017-03-01T18:27:58.530Z,927.75
2017-03-01T18:29:12.117Z,927.72
2017-03-01T18:30:39.422Z,927.74
2017-03-01T18:31:52.772Z,927.71
2017-03-01T18:33:06.107Z,927.76
2017-03-01T18:34:19.474Z,927.72
2017-03-01T18:35:31.691Z,927.77
2017-03-01T18:36:45.065Z,927.71
2017-03-01T18:37:58.396Z,927.68
2017-03-01T18:39:11.758Z,927.68
2017-03-01T18:40:25.111Z,927.7
2017-03-01T18:41:38.492Z,927.67
2017-03-01T18:42:51.818Z,927.66
2017-03-01T18:44:05.136Z,927.65
2017-03-01T18:45:17.881Z,927.6
2017-03-01T18:46:30.651Z,927.59
2017-03-01T18:47:57.998Z,927.57
2017-03-01T18:49:11.342Z,927.61
2017-03-01T18:50:24.677Z,927.64
2017-03-01T18:51:36.851Z,927.65
2017-03-01T18:53:04.147Z,927.66
2017-03-01T18:55:44.780Z,927.7
2017-03-01T18:56:57.527Z,927.71
2017-03-01T18:58:10.865Z,927.69
2017-03-01T18:59:24.225Z,927.67
2017-03-01T19:00:37.606Z,927.63
2017-03-01T19:01:50.920Z,927.62
2017-03-01T19:03:04.266Z,927.62
2017-03-01T19:04:17.620Z,927.61
2017-03-01T19:05:30.411Z,927.64
2017-03-01T19:06:43.742Z,927.63
2017-03-01T19:08:11.049Z,927.64
2017-03-01T19:09:24.387Z,927.68
2017-03-01T19:10:37.145Z,927.65
2017-03-01T19:11:50.442Z,927.63
2017-03-01T19:14:30.502Z,927.6
2017-03-01T19:15:43.807Z,927.58
2017-03-01T19:16:56.537Z,927.53
2017-03-01T19:19:37.401Z,927.48
2017-03-01T19:20:50.716Z,927.47
2017-03-01T19:22:02.856Z,927.46
2017-03-01T19:23:15.585Z,927.46
2017-03-01T19:24:28.335Z,927.48
2017-03-01T19:25:41.632Z,927.44
2017-03-01T19:26:54.355Z,927.44
2017-03-01T19:28:07.081Z,927.41
2017-03-01T19:29:19.807Z,927.4
2017-03-01T19:30:32.534Z,927.37
2017-03-01T19:31:45.813Z,927.35
2017-03-01T19:32:59.115Z,927.37
2017-03-01T19:34:11.844Z,927.38
2017-03-01T19:35:25.165Z,927.39
2017-03-01T19:36:38.652Z,927.41
2017-03-01T19:37:51.945Z,927.41
2017-03-01T19:39:05.273Z,927.39
2017-03-01T19:40:17.996Z,927.41
2017-03-01T19:41:31.494Z,927.38
2017-03-01T19:42:44.787Z,927.37
2017-03-01T19:43:58.083Z,927.37
2017-03-01T19:45:10.797Z,927.31
2017-03-01T19:46:24.084Z,927.32
2017-03-01T19:47:37.375Z,927.33
2017-03-01T19:48:50.119Z,927.3
2017-03-01T19:50:03.416Z,927.34
2017-03-01T19:52:42.825Z,927.36
2017-03-01T19:53:55.548Z,927.4
2017-03-01T19:55:08.846Z,927.4
2017-03-01T19:56:22.139Z,927.43
2017-03-01T19:57:34.556Z,927.41
2017-03-01T19:59:01.819Z,927.49
2017-03-01T20:00:14.538Z,927.5
2017-03-01T20:01:27.254Z,927.53
2017-03-01T20:02:40.267Z,927.53
2017-03-01T20:03:52.987Z,927.51
2017-03-01T20:05:06.277Z,927.55
2017-03-01T20:06:19.562Z,927.54
2017-03-01T20:07:47.823Z,927.59
2017-03-01T20:09:00.537Z,927.58
2017-03-01T20:10:13.255Z,927.58
2017-03-01T20:11:25.988Z,927.63
2017-03-01T20:12:39.276Z,927.64
2017-03-01T20:13:52.585Z,927.65
2017-03-01T20:15:05.892Z,927.69
2017-03-01T20:16:18.599Z,927.7
2017-03-01T20:17:31.901Z,927.69
2017-03-01T20:18:45.401Z,927.72
2017-03-01T20:19:58.110Z,927.77
2017-03-01T20:21:11.395Z,927.74
2017-03-01T20:22:24.669Z,927.73
2017-03-01T20:23:37.390Z,927.73
2017-03-01T20:24:50.148Z,927.69
2017-03-01T20:26:03.434Z,927.74
2017-03-01T20:27:15.613Z,927.73
2017-03-01T20:28:28.901Z,927.67
2017-03-01T20:29:42.409Z,927.71
2017-03-01T20:30:55.693Z,927.69
2017-03-01T20:32:08.983Z,927.73
2017-03-01T20:33:22.279Z,927.68
2017-03-01T20:34:49.531Z,927.72
2017-03-01T20:36:02.827Z,927.7
2017-03-01T20:37:15.550Z,927.75
2017-03-01T20:38:28.826Z,927.77
2017-03-01T20:39:42.120Z,927.77
2017-03-01T20:40:55.435Z,927.79
2017-03-01T20:42:22.734Z,927.81
2017-03-01T20:43:36.009Z,927.81
2017-03-01T20:45:02.700Z,927.86
2017-03-01T20:46:15.975Z,927.84
2017-03-01T20:47:29.245Z,927.87
2017-03-01T20:48:41.963Z,927.93
2017-03-01T20:49:55.257Z,927.88
2017-03-01T20:51:22.770Z,927.91
2017-03-01T20:52:35.505Z,927.95
2017-03-01T20:53:48.211Z,927.92
2017-03-01T20:55:01.493Z,927.92
2017-03-01T20:56:14.767Z,927.9
2017-03-01T20:57:28.040Z,927.92
2017-03-01T20:58:39.623Z,927.89
2017-03-01T21:00:06.318Z,927.89
2017-03-01T21:01:19.814Z,927.98
2017-03-01T21:02:32.555Z,927.99
2017-03-01T21:03:45.845Z,928
2017-03-01T21:04:59.129Z,928.01
2017-03-01T21:06:12.398Z,928
2017-03-01T21:07:25.881Z,927.99
2017-03-01T21:08:38.601Z,928.03
2017-03-01T21:09:51.322Z,927.98
2017-03-01T21:11:04.592Z,927.97
2017-03-01T21:12:17.334Z,927.92
2017-03-01T21:13:30.625Z,927.9
2017-03-01T21:14:43.750Z,927.92
2017-03-01T21:15:57.042Z,927.92
2017-03-01T21:17:09.759Z,927.92
2017-03-01T21:18:23.257Z,927.89
2017-03-01T21:19:36.560Z,927.85
2017-03-01T21:20:49.853Z,927.88
2017-03-01T21:22:02.610Z,927.85
2017-03-01T21:23:15.323Z,927.85
2017-03-01T21:24:28.618Z,927.84
2017-03-01T21:25:41.382Z,927.87
2017-03-01T21:26:54.890Z,927.91
2017-03-01T21:28:08.183Z,927.92
2017-03-01T21:29:21.663Z,927.93
2017-03-01T21:30:35.150Z,927.96
2017-03-01T21:31:48.871Z,927.95
2017-03-01T21:33:02.562Z,927.96
2017-03-01T21:34:30.043Z,928
2017-03-01T21:35:42.761Z,927.99
2017-03-01T21:36:55.480Z,928.02
2017-03-01T21:38:08.760Z,928.07
2017-03-01T21:39:22.293Z,928.11
2017-03-01T21:40:35.573Z,928.17
2017-03-01T21:42:02.858Z,928.17
2017-03-01T21:43:16.151Z,928.16
2017-03-01T21:44:29.630Z,928.17
2017-03-01T21:45:42.347Z,928.14
2017-03-01T21:46:55.650Z,928.16
2017-03-01T21:48:22.926Z,928.12
2017-03-01T21:49:35.645Z,928.15
2017-03-01T21:50:48.930Z,928.15
2017-03-01T21:52:01.641Z,928.16
2017-03-01T21:53:14.922Z,928.16
2017-03-01T21:54:28.232Z,928.21
2017-03-01T21:55:40.599Z,928.27
2017-03-01T21:57:07.889Z,928.33
2017-03-01T21:58:21.178Z,928.38
2017-03-01T21:59:34.492Z,928.45
2017-03-01T22:01:01.187Z,928.41
2017-03-01T22:02:14.466Z,928.44
2017-03-01T22:03:41.751Z,928.48
2017-03-01T22:04:54.693Z,928.47
2017-03-01T22:06:08.000Z,928.46
2017-03-01T22:07:21.299Z,928.45
2017-03-01T22:08:34.783Z,928.49
2017-03-01T22:09:48.069Z,928.53
2017-03-01T22:11:00.787Z,928.54
2017-03-01T22:12:42.251Z,928.56
2017-03-01T22:13:55.578Z,928.59
2017-03-01T22:15:09.364Z,928.62
2017-03-01T22:16:22.644Z,928.64
2017-03-01T22:17:35.592Z,928.62
2017-03-01T22:18:49.151Z,928.61
2017-03-01T22:20:15.832Z,928.62
2017-03-01T22:21:29.122Z,928.62
2017-03-01T22:22:42.433Z,928.63
2017-03-01T22:24:09.118Z,928.67
2017-03-01T22:25:22.396Z,928.69
2017-03-01T22:26:35.713Z,928.71
2017-03-01T22:27:48.992Z,928.77
2017-03-01T22:29:02.288Z,928.81
2017-03-01T22:30:15.578Z,928.84
2017-03-01T22:31:28.298Z,928.87
2017-03-01T22:32:41.595Z,928.87
2017-03-01T22:33:54.879Z,928.89
2017-03-01T22:35:08.167Z,928.89
2017-03-01T22:36:21.082Z,929
2017-03-01T22:37:48.366Z,929.02
2017-03-01T22:39:01.647Z,929.08
2017-03-01T22:40:14.934Z,929.12
2017-03-01T22:41:28.533Z,929.19
2017-03-01T22:42:41.833Z,929.27
2017-03-01T22:43:54.563Z,929.27
2017-03-01T22:45:07.874Z,929.28
2017-03-01T22:46:21.210Z,929.34
2017-03-01T22:47:34.764Z,929.36
2017-03-01T22:48:48.054Z,929.38
2017-03-01T22:50:00.776Z,929.38
2017-03-01T22:51:14.067Z,929.46
2017-03-01T22:52:27.540Z,929.47
2017-03-01T22:53:40.826Z,929.48
2017-03-01T22:54:54.113Z,929.51
2017-03-01T22:56:07.432Z,929.51
2017-03-01T22:57:20.159Z,929.5
2017-03-01T22:58:33.448Z,929.51
2017-03-01T22:59:45.621Z,929.5
2017-03-01T23:00:57.766Z,929.47
2017-03-01T23:02:11.042Z,929.47
2017-03-01T23:03:24.326Z,929.44
2017-03-01T23:04:37.032Z,929.48
2017-03-01T23:05:50.328Z,929.46
2017-03-01T23:07:03.617Z,929.45
2017-03-01T23:08:16.915Z,929.51
2017-03-01T23:09:30.243Z,929.55
2017-03-01T23:10:43.532Z,929.59
2017-03-01T23:12:10.799Z,929.61
2017-03-01T23:13:24.088Z,929.65
2017-03-01T23:14:37.378Z,929.64
2017-03-01T23:15:50.653Z,929.65
2017-03-01T23:17:03.929Z,929.66
2017-03-01T23:18:17.226Z,929.68
2017-03-01T23:19:30.146Z,929.76
2017-03-01T23:20:43.425Z,929.81
2017-03-01T23:21:56.724Z,929.8
2017-03-01T23:23:23.975Z,929.77
2017-03-01T23:24:36.710Z,929.78
2017-03-01T23:25:50.006Z,929.78
2017-03-01T23:27:03.297Z,929.77
2017-03-01T23:28:16.577Z,929.8
2017-03-01T23:29:29.854Z,929.81
2017-03-01T23:30:42.631Z,929.89
2017-03-01T23:31:54.863Z,929.98
2017-03-01T23:33:08.749Z,930.05
2017-03-01T23:34:22.661Z,930.06
2017-03-01T23:35:36.933Z,930.09
2017-03-01T23:36:50.195Z,930.08
2017-03-01T23:38:04.084Z,930.12
2017-03-01T23:39:17.940Z,930.11
2017-03-01T23:40:32.134Z,930.12
2017-03-01T23:41:46.011Z,930.09
2017-03-01T23:42:59.912Z,930.12
2017-03-01T23:44:13.782Z,930.14
2017-03-01T23:45:27.049Z,930.12
2017-03-01T23:46:40.283Z,930.1
2017-03-01T23:47:53.844Z,930.03
2017-03-01T23:49:07.333Z,930.07
2017-03-01T23:50:20.803Z,930.04
2017-03-01T23:51:34.463Z,930.05
2017-03-01T23:52:47.979Z,930.02
2017-03-01T23:54:01.436Z,929.97
2017-03-01T23:55:14.938Z,929.94
2017-03-01T23:56:28.432Z,929.92
2017-03-01T23:57:56.041Z,929.99
2017-03-01T23:59:09.518Z,930
